Rankings de siempre
Mejores tiempos personales válidos de equipo a través de todos los eventos y temporadas. Cada equipo aparece una vez por división.
Busca por nombre y abre la página donde está clasificado este récord de división.
13,786 equipos clasificados
| Pos. | Pos. AG | Equipo | Nacionalidad | Categoría de edad | TiempoMejor tiempo | Diferencia |
|---|---|---|---|---|---|---|
| 11376 | #3899 | Karen Cortez & Valeria González PadillaMEX · W 30-34 · AG #3899 | MEX | W 30-34 | 1:34:20 | +40:40 |
| 11377 | #3900 | Mairi Lawrie & Catriona WilsonGBR · W 30-34 · AG #3900 | GBR | W 30-34 | 1:34:20 | +40:40 |
| 11378 | #3901 | Palavesin Lisa & Magali PelletierFRA · W 30-34 · AG #3901 | FRA | W 30-34 | 1:34:20 | +40:40 |
| 11379 | #1585 | Julia Thesing & Danielle Anne ArteltW 35-39 · AG #1585 | -- | W 35-39 | 1:34:22 | +40:42 |
| 11380 | #1922 | Leah Knecht & Celine PeyerSUI · W 25-29 · AG #1922 | SUI | W 25-29 | 1:34:22 | +40:42 |
| 11381 | #730 | Théa Vast & Cassandre HillouFRA · W 16-24 · AG #730 | FRA | W 16-24 | 1:34:22 | +40:42 |
| 11382 | #1586 | Victoria Hamilton & Hannah HughesGBR · W 35-39 · AG #1586 | GBR | W 35-39 | 1:34:22 | +40:42 |
| 11383 | #1587 | Anneke Huppertz & Tanja SeidenbergGER · W 35-39 · AG #1587 | GER | W 35-39 | 1:34:22 | +40:42 |
| 11384 | #731 | Aline Orhant & Elina RengnetW 16-24 · AG #731 | -- | W 16-24 | 1:34:23 | +40:43 |
| 11385 | #403 | Gemma Ward & Beth SuggGBR · W 45-49 · AG #403 | GBR | W 45-49 | 1:34:23 | +40:43 |
| 11386 | #3902 | Silvie Placherova & Katerina RatiborskaCZE · W 30-34 · AG #3902 | CZE | W 30-34 | 1:34:24 | +40:44 |
| 11387 | #3903 | Rienke LEMARCQ & Bieke DEWULFBEL · W 30-34 · AG #3903 | BEL | W 30-34 | 1:34:24 | +40:44 |
| 11388 | #404 | Elena Andreolli & Tania BrunoITA · W 45-49 · AG #404 | ITA | W 45-49 | 1:34:24 | +40:44 |
| 11389 | #1923 | Alejandra Amador & Rocio VillanuevaMEX · W 25-29 · AG #1923 | MEX | W 25-29 | 1:34:25 | +40:45 |
| 11390 | #1924 | Ariandy Martinez & Andrea LugoMEX · W 25-29 · AG #1924 | MEX | W 25-29 | 1:34:25 | +40:45 |
| 11391 | #1925 | Maud Jordan & Pauline HudryFRA · W 25-29 · AG #1925 | FRA | W 25-29 | 1:34:25 | +40:45 |
| 11392 | #3904 | Courtney Stokes & Shannon StokesGBR · W 30-34 · AG #3904 | GBR | W 30-34 | 1:34:26 | +40:46 |
| 11393 | #3905 | Joyce Benjamins & Kirsty SeinenNED · W 30-34 · AG #3905 | NED | W 30-34 | 1:34:26 | +40:46 |
| 11394 | #1926 | Nicole Stewart & Jessikah GrahamGBR · W 25-29 · AG #1926 | GBR | W 25-29 | 1:34:27 | +40:47 |
| 11395 | #3906 | Faye Koenigsmark & Danielle WilliamsUSA · W 30-34 · AG #3906 | USA | W 30-34 | 1:34:27 | +40:47 |
| 11396 | -- | Rebecca Creamer & Sarah GathererGBR · W WU29 | GBR | W WU29 | 1:34:27 | +40:47 |
| 11397 | #1717 | Mieke Vloemans & Ingrid Van Den BergNED · W 40-44 · AG #1717 | NED | W 40-44 | 1:34:27 | +40:47 |
| 11398 | #3907 | Jeanne Allard & Pauline VenturaFRA · W 30-34 · AG #3907 | FRA | W 30-34 | 1:34:27 | +40:47 |
| 11399 | #1588 | Sonia Pimpinella & Christiana ZavagliaITA · W 35-39 · AG #1588 | ITA | W 35-39 | 1:34:28 | +40:48 |
| 11400 | #3908 | Cassandra Bendall & Jessica MatteiAUS · W 30-34 · AG #3908 | AUS | W 30-34 | 1:34:28 | +40:48 |
Página 456 de 552